SondeTracker

Meteorological Radiosondes Database

Operations

Sounding was ended - last measurement: 2022-12-06 13:18:21z

MAP
About Radiosonde

Number: D22037482

Launch Site:

Type: DFM17

AUX: NO

Frequency: 403.011 MHz

Max Speed: 220 km/h at 12153 m

Average Speed: 129.06 km/h

Max Altitude: 30207 m

Average Ascent Speed: 4.06 m/s

Average Descent Speed: 12.57 m/s

Status: UNKNOWN

Status Changes
Launch Site Type AUX Frequency Status Finder Landing Point Description Changes made by
APRS Statistics

Received Frames: 53

First Frame [UTC]: 2022-12-06 11:44:52z

Last Frame [UTC]: 2022-12-06 13:18:21z

Receivers: N0GRP-1

Flight Time: 01:33:29 h

Distance From First Measurement: 150.31 km

Nearest City: Farmington [MO] (US) [54.23 km]

Nearest Hunter: [0.00 km]

Ground Altitude: 274 m

Distance from QTH: 0.00 km

APRS Data
Receiver Number Date/Time [UTC] φ λ Course [°] Speed [km/h] Altitude [m] Description
N0GRP-1D220374822022-12-06 13:18:2137.4351-90.86148713116417Clb=-9.1m/s t=-67.7C h=-1.0% p=-1.0hPa 403.011 MHz Type=DFM17 Radiosonde
N0GRP-1D220374822022-12-06 13:17:3937.4347-90.86688313116556Clb=-9.2m/s t=-67.8C h=-1.0% p=-1.0hPa 403.011 MHz Type=DFM17 Radiosonde
N0GRP-1D220374822022-12-06 13:16:5437.435-90.8789410016838Clb=-9.5m/s t=-68.5C h=-1.0% p=-1.0hPa 403.011 MHz Type=DFM17 Radiosonde
N0GRP-1D220374822022-12-06 13:16:1637.4354-90.88889811317134Clb=-9.6m/s t=-69.5C h=-1.0% p=-1.0hPa 403.011 MHz Type=DFM17 Radiosonde
N0GRP-1D220374822022-12-06 13:15:3637.4348-90.9004888917547Clb=-10.1m/s t=-70.5C h=-1.0% p=-1.0hPa 403.011 MHz Type=DFM17 Radiosonde
N0GRP-1D220374822022-12-06 13:14:5137.4338-90.9058889317737Clb=-10.1m/s t=-71.0C h=-1.0% p=-1.0hPa 403.011 MHz Type=DFM17 Radiosonde
N0GRP-1D220374822022-12-06 13:14:1137.4329-90.9139869418047Clb=-10.1m/s t=-69.0C h=-1.0% p=-1.0hPa 403.011 MHz Type=DFM17 Radiosonde
N0GRP-1D220374822022-12-06 13:13:2737.4333-90.9216747218368Clb=-10.2m/s t=-68.9C h=-1.0% p=-1.0hPa 403.011 MHz Type=DFM17 Radiosonde
N0GRP-1D220374822022-12-06 13:12:4137.4334-90.93121079318692Clb=-10.6m/s t=-66.0C h=-1.0% p=-1.0hPa 403.011 MHz Type=DFM17 Radiosonde
N0GRP-1D220374822022-12-06 13:12:0137.4335-90.9379897419060Clb=-11.9m/s t=-64.0C h=-1.0% p=-1.0hPa 403.011 MHz Type=DFM17 Radiosonde
N0GRP-1D220374822022-12-06 13:11:5737.4333-90.9421464319425Clb=-12.2m/s t=-65.1C h=-1.0% p=-1.0hPa 403.011 MHz Type=DFM17 Radiosonde
N0GRP-1D220374822022-12-06 13:11:4937.4323-90.9471872619824Clb=-12.7m/s t=-67.3C h=-1.0% p=-1.0hPa 403.011 MHz Type=DFM17 Radiosonde
N0GRP-1D220374822022-12-06 13:11:4237.4307-90.9526977620227Clb=-13.2m/s t=-65.8C h=-1.0% p=-1.0hPa 403.011 MHz Type=DFM17 Radiosonde
N0GRP-1D220374822022-12-06 13:11:3837.4302-90.9573657420648Clb=-13.8m/s t=-63.1C h=-1.0% p=-1.0hPa 403.011 MHz Type=DFM17 Radiosonde
N0GRP-1D220374822022-12-06 13:11:3537.4289-90.9618818121078Clb=-14.0m/s t=-62.8C h=-1.0% p=-1.0hPa 403.011 MHz Type=DFM17 Radiosonde
N0GRP-1D220374822022-12-06 13:11:1537.43-90.9682988721517Clb=-14.3m/s t=-62.2C h=-1.0% p=-1.0hPa 403.011 MHz Type=DFM17 Radiosonde
N0GRP-1D220374822022-12-06 13:10:3237.4314-90.97351226321970Clb=-15.2m/s t=-61.3C h=-1.0% p=-1.0hPa 403.011 MHz Type=DFM17 Radiosonde
N0GRP-1D220374822022-12-06 13:09:3937.4314-90.9758199622446Clb=-15.9m/s t=-63.3C h=-1.0% p=-1.0hPa 403.011 MHz Type=DFM17 Radiosonde
N0GRP-1D220374822022-12-06 13:08:4537.4291-90.979515922960Clb=-16.7m/s t=-62.0C h=-1.0% p=-1.0hPa 403.011 MHz Type=DFM17 Radiosonde
N0GRP-1D220374822022-12-06 13:07:4737.4289-90.9858818923463Clb=-17.5m/s t=-62.5C h=-1.0% p=-1.0hPa 403.011 MHz Type=DFM17 Radiosonde
N0GRP-1D220374822022-12-06 13:06:5237.4293-90.99191047424010Clb=-18.1m/s t=-61.1C h=-1.0% p=-1.0hPa 403.011 MHz Type=DFM17 Radiosonde
N0GRP-1D220374822022-12-06 13:06:0537.4289-90.9993734824600Clb=-19.8m/s t=-57.7C h=-1.0% p=-1.0hPa 403.011 MHz Type=DFM17 Radiosonde
N0GRP-1D220374822022-12-06 13:05:1937.4297-91.006310610225229Clb=-20.3m/s t=-55.9C h=-1.0% p=-1.0hPa 403.011 MHz Type=DFM17 Radiosonde
N0GRP-1D220374822022-12-06 13:04:2737.4302-91.0128773325903Clb=-21.3m/s t=-55.0C h=-1.0% p=-1.0hPa 403.011 MHz Type=DFM17 Radiosonde
N0GRP-1D220374822022-12-06 13:03:2937.43-91.01888711326567Clb=-23.4m/s t=-53.7C h=-1.0% p=-1.0hPa 403.011 MHz Type=DFM17 Radiosonde
N0GRP-1D220374822022-12-06 13:02:4637.4302-91.03139411527872Clb=-25.8m/s t=-52.1C h=-1.0% p=-1.0hPa 403.011 MHz Type=DFM17 Radiosonde
N0GRP-1D220374822022-12-06 13:01:5537.4298-91.03478111928216Clb=-26.1m/s t=-51.6C h=-1.0% p=-1.0hPa 403.011 MHz Type=DFM17 Radiosonde
N0GRP-1D220374822022-12-06 13:00:0437.4277-91.0599914130207Clb=-29.8m/s t=-48.7C h=-1.0% p=-1.0hPa 403.011 MHz Type=DFM17 Radiosonde
N0GRP-1D220374822022-12-06 12:10:1837.4004-91.992310112216685Clb=6.0m/s t=-66.5C h=-1.0% p=-1.0hPa 403.011 MHz Type=DFM17 Radiosonde
N0GRP-1D220374822022-12-06 12:08:5237.4019-92.019413716457Clb=5.1m/s t=-67.0C h=-1.0% p=-1.0hPa 403.011 MHz Type=DFM17 Radiosonde
N0GRP-1D220374822022-12-06 12:07:3037.4021-92.0179013016374Clb=4.0m/s t=-67.2C h=-1.0% p=-1.0hPa 403.011 MHz Type=DFM17 Radiosonde
N0GRP-1D220374822022-12-06 12:06:2037.4024-92.02959113516225Clb=5.8m/s t=-66.6C h=-1.0% p=-1.0hPa 403.011 MHz Type=DFM17 Radiosonde
N0GRP-1D220374822022-12-06 12:05:0537.4023-92.04228912816079Clb=4.8m/s t=-67.2C h=-1.0% p=-1.0hPa 403.011 MHz Type=DFM17 Radiosonde
N0GRP-1D220374822022-12-06 12:02:3437.4021-92.07529413115739Clb=5.2m/s t=-67.4C h=-1.0% p=-1.0hPa 403.011 MHz Type=DFM17 Radiosonde
N0GRP-1D220374822022-12-06 11:58:5637.4034-92.11818917615370Clb=5.1m/s t=-67.8C h=-1.0% p=-1.0hPa 403.011 MHz Type=DFM17 Radiosonde
N0GRP-1D220374822022-12-06 11:54:0837.3966-92.19718018114690Clb=5.9m/s t=-66.9C h=-1.0% p=-1.0hPa 403.011 MHz Type=DFM17 Radiosonde
N0GRP-1D220374822022-12-06 11:52:5037.3957-92.20518318114623Clb=5.0m/s t=-66.4C h=-1.0% p=-1.0hPa 403.011 MHz Type=DFM17 Radiosonde
N0GRP-1D220374822022-12-06 11:50:2337.385-92.28328018113981Clb=4.6m/s t=-62.6C h=-1.0% p=-1.0hPa 403.011 MHz Type=DFM17 Radiosonde
N0GRP-1D220374822022-12-06 11:50:0037.3818-92.30648218013797Clb=3.8m/s t=-62.7C h=-1.0% p=-1.0hPa 403.011 MHz Type=DFM17 Radiosonde
N0GRP-1D220374822022-12-06 11:49:5037.3815-92.30878018913780Clb=5.2m/s t=-62.7C h=-1.0% p=-1.0hPa 403.011 MHz Type=DFM17 Radiosonde
N0GRP-1D220374822022-12-06 11:49:3337.3794-92.32728318513637Clb=4.7m/s t=-62.5C h=-1.0% p=-1.0hPa 403.011 MHz Type=DFM17 Radiosonde
N0GRP-1D220374822022-12-06 11:49:0037.3775-92.34538319613495Clb=3.9m/s t=-62.6C h=-1.0% p=-1.0hPa 403.011 MHz Type=DFM17 Radiosonde
N0GRP-1D220374822022-12-06 11:48:5037.3756-92.36728419113320Clb=5.6m/s t=-61.5C h=-1.0% p=-1.0hPa 403.011 MHz Type=DFM17 Radiosonde
N0GRP-1D220374822022-12-06 11:48:4837.3745-92.38158519113205Clb=5.9m/s t=-61.9C h=-1.0% p=-1.0hPa 403.011 MHz Type=DFM17 Radiosonde
N0GRP-1D220374822022-12-06 11:48:4537.3735-92.40179020213047Clb=4.7m/s t=-62.5C h=-1.0% p=-1.0hPa 403.011 MHz Type=DFM17 Radiosonde
N0GRP-1D220374822022-12-06 11:48:4337.3728-92.41929120612912Clb=3.5m/s t=-62.9C h=-1.0% p=-1.0hPa 403.011 MHz Type=DFM17 Radiosonde
N0GRP-1D220374822022-12-06 11:48:4037.372-92.44268518512731Clb=4.6m/s t=-62.9C h=-1.0% p=-1.0hPa 403.011 MHz Type=DFM17 Radiosonde
N0GRP-1D220374822022-12-06 11:48:3837.3724-92.45839320712609Clb=5.6m/s t=-62.8C h=-1.0% p=-1.0hPa 403.011 MHz Type=DFM17 Radiosonde
N0GRP-1D220374822022-12-06 11:48:3637.374-92.49539120612338Clb=4.8m/s t=-61.2C h=-1.0% p=-1.0hPa 403.011 MHz Type=DFM17 Radiosonde
N0GRP-1D220374822022-12-06 11:47:5737.374-92.49878921512315Clb=5.8m/s t=-61.0C h=-1.0% p=-1.0hPa 403.011 MHz Type=DFM17 Radiosonde
N0GRP-1D220374822022-12-06 11:46:5137.3739-92.52158822012153Clb=5.2m/s t=-60.0C h=-1.0% p=-1.0hPa 403.011 MHz Type=DFM17 Radiosonde
N0GRP-1D220374822022-12-06 11:45:5337.3736-92.54018721312020Clb=4.0m/s t=-59.1C h=-1.0% p=-1.0hPa 403.011 MHz Type=DFM17 Radiosonde
N0GRP-1D220374822022-12-06 11:44:5237.3736-92.56139121311871Clb=3.8m/s t=-58.3C h=-1.0% p=-1.0hPa 403.011 MHz Type=DFM17 Radiosonde